De Luce, Arkansas
Current Conditions -  °F | °C
As of 2:15 AM on Thursday 29 Jan 2015 (Local Time) from KSGT Reporting Station
Clear Clear  
Wind Chill: 57°   Ceiling: Unl
Heat Index: 57°   Visibility: 10mi
Dew Point: 43°   Wind: 20mph
Humidity: 59%   Direction: 200°SSW
Pressure: 30.04"   Gusts: 26mph
Location:  34.1937°N, 91.3321°W
Report Text: KSGT 290815Z AUTO 20017G23KT 10SM CLR 14/06 A3004 RMK AO1
Loading
Personal Weather Stations






























Interactive Weather Map New forecast layout! Learn more

10-Day Weather Forecast

Advertisements
Track Severe Weather on mobile